sensor_id;sensor_type;location;lat;lon;timestamp;P1;durP1;ratioP1;P2;durP2;ratioP2
14088;SDS011;7120;52.890;6.040;2024-03-07T00:02:14;132.60;;;48.90;;
14088;SDS011;7120;52.890;6.040;2024-03-07T00:04:39;131.13;;;50.50;;
14088;SDS011;7120;52.890;6.040;2024-03-07T00:07:05;140.47;;;52.93;;
14088;SDS011;7120;52.890;6.040;2024-03-07T00:09:32;140.73;;;52.30;;
14088;SDS011;7120;52.890;6.040;2024-03-07T00:11:59;127.90;;;50.13;;
14088;SDS011;7120;52.890;6.040;2024-03-07T00:14:25;122.33;;;48.70;;
14088;SDS011;7120;52.890;6.040;2024-03-07T00:16:56;142.63;;;47.37;;
14088;SDS011;7120;52.890;6.040;2024-03-07T00:19:22;134.53;;;50.33;;
14088;SDS011;7120;52.890;6.040;2024-03-07T00:21:54;141.43;;;53.63;;
14088;SDS011;7120;52.890;6.040;2024-03-07T00:24:22;131.73;;;54.20;;
14088;SDS011;7120;52.890;6.040;2024-03-07T00:26:48;142.50;;;53.90;;
14088;SDS011;7120;52.890;6.040;2024-03-07T00:29:19;140.93;;;53.50;;
14088;SDS011;7120;52.890;6.040;2024-03-07T00:31:47;148.33;;;53.77;;
14088;SDS011;7120;52.890;6.040;2024-03-07T00:34:13;145.63;;;53.50;;
14088;SDS011;7120;52.890;6.040;2024-03-07T00:36:41;132.27;;;54.97;;
14088;SDS011;7120;52.890;6.040;2024-03-07T00:39:06;140.87;;;56.30;;
14088;SDS011;7120;52.890;6.040;2024-03-07T00:41:36;140.90;;;55.33;;
14088;SDS011;7120;52.890;6.040;2024-03-07T00:44:05;130.77;;;55.67;;
14088;SDS011;7120;52.890;6.040;2024-03-07T00:46:31;145.00;;;55.17;;
14088;SDS011;7120;52.890;6.040;2024-03-07T00:48:59;134.67;;;55.50;;
14088;SDS011;7120;52.890;6.040;2024-03-07T00:51:25;117.50;;;52.53;;
14088;SDS011;7120;52.890;6.040;2024-03-07T00:53:50;123.93;;;54.20;;
14088;SDS011;7120;52.890;6.040;2024-03-07T00:56:16;120.20;;;53.07;;
14088;SDS011;7120;52.890;6.040;2024-03-07T00:58:42;106.80;;;52.10;;
14088;SDS011;7120;52.890;6.040;2024-03-07T01:01:07;113.37;;;51.97;;
14088;SDS011;7120;52.890;6.040;2024-03-07T01:03:33;116.50;;;50.87;;
14088;SDS011;7120;52.890;6.040;2024-03-07T01:05:59;93.30;;;49.07;;
14088;SDS011;7120;52.890;6.040;2024-03-07T01:08:24;107.80;;;50.80;;
14088;SDS011;7120;52.890;6.040;2024-03-07T01:10:49;97.77;;;50.37;;
14088;SDS011;7120;52.890;6.040;2024-03-07T01:13:15;99.43;;;49.20;;
14088;SDS011;7120;52.890;6.040;2024-03-07T01:15:44;101.17;;;49.03;;
14088;SDS011;7120;52.890;6.040;2024-03-07T01:18:10;94.27;;;49.50;;
14088;SDS011;7120;52.890;6.040;2024-03-07T01:20:36;92.70;;;47.87;;
14088;SDS011;7120;52.890;6.040;2024-03-07T01:23:01;91.37;;;47.93;;
14088;SDS011;7120;52.890;6.040;2024-03-07T01:25:26;89.57;;;45.93;;
14088;SDS011;7120;52.890;6.040;2024-03-07T01:27:52;83.03;;;46.33;;
14088;SDS011;7120;52.890;6.040;2024-03-07T01:30:17;96.23;;;47.10;;
14088;SDS011;7120;52.890;6.040;2024-03-07T01:32:43;89.53;;;46.57;;
14088;SDS011;7120;52.890;6.040;2024-03-07T01:35:08;85.70;;;44.33;;
14088;SDS011;7120;52.890;6.040;2024-03-07T01:37:34;88.17;;;45.37;;
14088;SDS011;7120;52.890;6.040;2024-03-07T01:40:00;85.90;;;46.73;;
14088;SDS011;7120;52.890;6.040;2024-03-07T01:42:30;88.13;;;44.83;;
14088;SDS011;7120;52.890;6.040;2024-03-07T01:44:55;85.40;;;46.30;;
14088;SDS011;7120;52.890;6.040;2024-03-07T01:47:21;85.20;;;47.30;;
14088;SDS011;7120;52.890;6.040;2024-03-07T01:49:46;83.37;;;45.03;;
14088;SDS011;7120;52.890;6.040;2024-03-07T01:52:11;88.57;;;44.63;;
14088;SDS011;7120;52.890;6.040;2024-03-07T01:54:37;81.03;;;43.17;;
14088;SDS011;7120;52.890;6.040;2024-03-07T01:57:04;81.80;;;45.43;;
14088;SDS011;7120;52.890;6.040;2024-03-07T01:59:29;87.47;;;45.23;;
14088;SDS011;7120;52.890;6.040;2024-03-07T02:01:56;75.50;;;42.77;;
14088;SDS011;7120;52.890;6.040;2024-03-07T02:04:22;86.93;;;42.47;;
14088;SDS011;7120;52.890;6.040;2024-03-07T02:06:48;87.23;;;41.17;;
14088;SDS011;7120;52.890;6.040;2024-03-07T02:09:14;79.53;;;40.83;;
14088;SDS011;7120;52.890;6.040;2024-03-07T02:11:39;77.87;;;40.20;;
14088;SDS011;7120;52.890;6.040;2024-03-07T02:14:05;85.03;;;42.13;;
14088;SDS011;7120;52.890;6.040;2024-03-07T02:16:30;78.50;;;40.93;;
14088;SDS011;7120;52.890;6.040;2024-03-07T02:18:59;81.63;;;40.03;;
14088;SDS011;7120;52.890;6.040;2024-03-07T02:21:24;82.27;;;37.33;;
14088;SDS011;7120;52.890;6.040;2024-03-07T02:23:50;80.10;;;37.47;;
14088;SDS011;7120;52.890;6.040;2024-03-07T02:26:16;90.77;;;38.63;;
14088;SDS011;7120;52.890;6.040;2024-03-07T02:28:41;67.23;;;35.73;;
14088;SDS011;7120;52.890;6.040;2024-03-07T02:31:07;80.13;;;36.33;;
14088;SDS011;7120;52.890;6.040;2024-03-07T02:33:32;83.87;;;35.37;;
14088;SDS011;7120;52.890;6.040;2024-03-07T02:35:57;80.20;;;34.90;;
14088;SDS011;7120;52.890;6.040;2024-03-07T02:38:23;89.40;;;36.50;;
14088;SDS011;7120;52.890;6.040;2024-03-07T02:40:49;72.57;;;34.90;;
14088;SDS011;7120;52.890;6.040;2024-03-07T02:43:14;66.83;;;36.70;;
14088;SDS011;7120;52.890;6.040;2024-03-07T02:45:40;73.53;;;38.00;;
14088;SDS011;7120;52.890;6.040;2024-03-07T02:48:06;83.93;;;40.80;;
14088;SDS011;7120;52.890;6.040;2024-03-07T02:50:34;83.63;;;38.80;;
14088;SDS011;7120;52.890;6.040;2024-03-07T02:53:02;76.93;;;39.20;;
14088;SDS011;7120;52.890;6.040;2024-03-07T02:55:28;75.27;;;41.77;;
14088;SDS011;7120;52.890;6.040;2024-03-07T02:57:54;89.27;;;41.67;;
14088;SDS011;7120;52.890;6.040;2024-03-07T03:00:19;82.83;;;43.20;;
14088;SDS011;7120;52.890;6.040;2024-03-07T03:02:47;78.23;;;41.93;;
14088;SDS011;7120;52.890;6.040;2024-03-07T03:05:14;78.30;;;41.90;;
14088;SDS011;7120;52.890;6.040;2024-03-07T03:07:40;77.10;;;41.73;;
14088;SDS011;7120;52.890;6.040;2024-03-07T03:10:06;75.97;;;40.83;;
14088;SDS011;7120;52.890;6.040;2024-03-07T03:12:35;80.90;;;43.07;;
14088;SDS011;7120;52.890;6.040;2024-03-07T03:15:03;83.83;;;42.43;;
14088;SDS011;7120;52.890;6.040;2024-03-07T03:17:32;89.63;;;42.20;;
14088;SDS011;7120;52.890;6.040;2024-03-07T03:19:57;78.13;;;41.93;;
14088;SDS011;7120;52.890;6.040;2024-03-07T03:22:22;77.53;;;42.30;;
14088;SDS011;7120;52.890;6.040;2024-03-07T03:24:48;78.63;;;41.20;;
14088;SDS011;7120;52.890;6.040;2024-03-07T03:27:13;75.27;;;41.20;;
14088;SDS011;7120;52.890;6.040;2024-03-07T03:29:38;74.47;;;40.27;;
14088;SDS011;7120;52.890;6.040;2024-03-07T03:32:05;72.43;;;39.63;;
14088;SDS011;7120;52.890;6.040;2024-03-07T03:34:31;71.13;;;39.43;;
14088;SDS011;7120;52.890;6.040;2024-03-07T03:36:57;74.70;;;39.27;;
14088;SDS011;7120;52.890;6.040;2024-03-07T03:39:22;70.50;;;39.07;;
14088;SDS011;7120;52.890;6.040;2024-03-07T03:41:48;66.70;;;37.57;;
14088;SDS011;7120;52.890;6.040;2024-03-07T03:44:13;66.67;;;38.73;;
14088;SDS011;7120;52.890;6.040;2024-03-07T03:46:39;68.13;;;37.90;;
14088;SDS011;7120;52.890;6.040;2024-03-07T03:49:04;70.80;;;39.53;;
14088;SDS011;7120;52.890;6.040;2024-03-07T03:51:31;66.93;;;37.03;;
14088;SDS011;7120;52.890;6.040;2024-03-07T03:53:56;69.23;;;38.47;;
14088;SDS011;7120;52.890;6.040;2024-03-07T03:56:21;66.50;;;37.10;;
14088;SDS011;7120;52.890;6.040;2024-03-07T03:58:47;69.73;;;37.50;;
14088;SDS011;7120;52.890;6.040;2024-03-07T04:01:12;67.97;;;37.87;;
14088;SDS011;7120;52.890;6.040;2024-03-07T04:03:39;71.10;;;39.87;;
14088;SDS011;7120;52.890;6.040;2024-03-07T04:06:05;70.13;;;38.43;;
14088;SDS011;7120;52.890;6.040;2024-03-07T04:08:30;69.57;;;37.70;;
14088;SDS011;7120;52.890;6.040;2024-03-07T04:10:56;67.20;;;38.10;;
14088;SDS011;7120;52.890;6.040;2024-03-07T04:13:21;65.40;;;37.20;;
14088;SDS011;7120;52.890;6.040;2024-03-07T04:15:50;63.33;;;37.67;;
14088;SDS011;7120;52.890;6.040;2024-03-07T04:18:16;65.07;;;38.20;;
14088;SDS011;7120;52.890;6.040;2024-03-07T04:20:41;64.27;;;35.73;;
14088;SDS011;7120;52.890;6.040;2024-03-07T04:23:09;62.67;;;35.57;;
14088;SDS011;7120;52.890;6.040;2024-03-07T04:25:34;64.27;;;36.27;;
14088;SDS011;7120;52.890;6.040;2024-03-07T04:28:00;68.40;;;36.20;;
14088;SDS011;7120;52.890;6.040;2024-03-07T04:30:28;65.40;;;36.77;;
14088;SDS011;7120;52.890;6.040;2024-03-07T04:32:53;63.43;;;37.40;;
14088;SDS011;7120;52.890;6.040;2024-03-07T04:35:19;62.57;;;36.80;;
14088;SDS011;7120;52.890;6.040;2024-03-07T04:37:44;67.50;;;36.37;;
14088;SDS011;7120;52.890;6.040;2024-03-07T04:40:10;60.70;;;36.00;;
14088;SDS011;7120;52.890;6.040;2024-03-07T04:42:42;64.00;;;35.97;;
14088;SDS011;7120;52.890;6.040;2024-03-07T04:45:11;63.53;;;37.63;;
14088;SDS011;7120;52.890;6.040;2024-03-07T04:47:41;61.50;;;36.00;;
14088;SDS011;7120;52.890;6.040;2024-03-07T04:50:07;64.10;;;36.20;;
14088;SDS011;7120;52.890;6.040;2024-03-07T04:52:35;64.43;;;36.00;;
14088;SDS011;7120;52.890;6.040;2024-03-07T04:55:01;60.77;;;35.17;;
14088;SDS011;7120;52.890;6.040;2024-03-07T04:57:27;60.43;;;36.60;;
14088;SDS011;7120;52.890;6.040;2024-03-07T04:59:52;64.83;;;35.53;;
14088;SDS011;7120;52.890;6.040;2024-03-07T05:02:17;65.83;;;35.13;;
14088;SDS011;7120;52.890;6.040;2024-03-07T05:04:43;61.30;;;34.83;;
14088;SDS011;7120;52.890;6.040;2024-03-07T05:07:08;62.43;;;36.03;;
14088;SDS011;7120;52.890;6.040;2024-03-07T05:09:33;63.00;;;36.83;;
14088;SDS011;7120;52.890;6.040;2024-03-07T05:11:58;56.63;;;35.47;;
14088;SDS011;7120;52.890;6.040;2024-03-07T05:14:24;53.63;;;33.40;;
14088;SDS011;7120;52.890;6.040;2024-03-07T05:16:52;53.97;;;35.03;;
14088;SDS011;7120;52.890;6.040;2024-03-07T05:19:34;58.57;;;35.63;;
14088;SDS011;7120;52.890;6.040;2024-03-07T05:22:00;60.50;;;34.53;;
14088;SDS011;7120;52.890;6.040;2024-03-07T05:24:26;56.40;;;35.70;;
14088;SDS011;7120;52.890;6.040;2024-03-07T05:26:52;59.97;;;36.40;;
14088;SDS011;7120;52.890;6.040;2024-03-07T05:29:18;57.60;;;34.53;;
14088;SDS011;7120;52.890;6.040;2024-03-07T05:31:43;53.10;;;34.20;;
14088;SDS011;7120;52.890;6.040;2024-03-07T05:34:12;59.43;;;34.90;;
14088;SDS011;7120;52.890;6.040;2024-03-07T05:36:38;55.43;;;34.10;;
14088;SDS011;7120;52.890;6.040;2024-03-07T05:39:11;53.60;;;33.30;;
14088;SDS011;7120;52.890;6.040;2024-03-07T05:41:37;52.63;;;34.07;;
14088;SDS011;7120;52.890;6.040;2024-03-07T05:44:03;52.90;;;32.83;;
14088;SDS011;7120;52.890;6.040;2024-03-07T05:46:33;50.53;;;32.50;;
14088;SDS011;7120;52.890;6.040;2024-03-07T05:49:00;53.00;;;33.00;;
14088;SDS011;7120;52.890;6.040;2024-03-07T05:51:25;49.70;;;32.13;;
14088;SDS011;7120;52.890;6.040;2024-03-07T05:53:51;50.70;;;32.50;;
14088;SDS011;7120;52.890;6.040;2024-03-07T05:56:16;50.40;;;32.33;;
14088;SDS011;7120;52.890;6.040;2024-03-07T05:58:42;49.87;;;32.67;;
14088;SDS011;7120;52.890;6.040;2024-03-07T06:01:07;47.83;;;30.37;;
14088;SDS011;7120;52.890;6.040;2024-03-07T06:03:36;49.67;;;31.60;;
14088;SDS011;7120;52.890;6.040;2024-03-07T06:06:02;47.40;;;31.33;;
14088;SDS011;7120;52.890;6.040;2024-03-07T06:08:27;53.63;;;33.03;;
14088;SDS011;7120;52.890;6.040;2024-03-07T06:10:53;51.97;;;32.47;;
14088;SDS011;7120;52.890;6.040;2024-03-07T06:13:18;50.10;;;31.20;;
14088;SDS011;7120;52.890;6.040;2024-03-07T06:15:44;52.63;;;32.50;;
14088;SDS011;7120;52.890;6.040;2024-03-07T06:18:11;49.73;;;32.67;;
14088;SDS011;7120;52.890;6.040;2024-03-07T06:20:38;48.50;;;32.67;;
14088;SDS011;7120;52.890;6.040;2024-03-07T06:23:05;55.27;;;35.63;;
14088;SDS011;7120;52.890;6.040;2024-03-07T06:25:31;50.13;;;34.07;;
14088;SDS011;7120;52.890;6.040;2024-03-07T06:28:15;44.50;;;31.07;;
14088;SDS011;7120;52.890;6.040;2024-03-07T06:30:41;46.00;;;31.57;;
14088;SDS011;7120;52.890;6.040;2024-03-07T06:33:08;47.70;;;30.80;;
14088;SDS011;7120;52.890;6.040;2024-03-07T06:35:41;40.60;;;29.93;;
14088;SDS011;7120;52.890;6.040;2024-03-07T06:38:11;47.77;;;31.40;;
14088;SDS011;7120;52.890;6.040;2024-03-07T06:40:36;46.77;;;32.23;;
14088;SDS011;7120;52.890;6.040;2024-03-07T06:43:02;44.83;;;31.70;;
14088;SDS011;7120;52.890;6.040;2024-03-07T06:45:29;43.33;;;29.63;;
14088;SDS011;7120;52.890;6.040;2024-03-07T06:47:55;46.37;;;32.03;;
14088;SDS011;7120;52.890;6.040;2024-03-07T06:50:20;50.00;;;31.27;;
14088;SDS011;7120;52.890;6.040;2024-03-07T06:52:46;41.80;;;31.43;;
14088;SDS011;7120;52.890;6.040;2024-03-07T06:55:14;45.07;;;31.80;;
14088;SDS011;7120;52.890;6.040;2024-03-07T06:57:43;46.27;;;31.10;;
14088;SDS011;7120;52.890;6.040;2024-03-07T07:00:10;40.80;;;30.47;;
14088;SDS011;7120;52.890;6.040;2024-03-07T07:02:37;46.83;;;32.60;;
14088;SDS011;7120;52.890;6.040;2024-03-07T07:05:04;43.80;;;32.40;;
14088;SDS011;7120;52.890;6.040;2024-03-07T07:07:36;43.70;;;30.63;;
14088;SDS011;7120;52.890;6.040;2024-03-07T07:10:06;46.03;;;32.13;;
14088;SDS011;7120;52.890;6.040;2024-03-07T07:12:35;43.83;;;31.40;;
14088;SDS011;7120;52.890;6.040;2024-03-07T07:15:01;39.13;;;31.40;;
14088;SDS011;7120;52.890;6.040;2024-03-07T07:17:26;42.63;;;31.23;;
14088;SDS011;7120;52.890;6.040;2024-03-07T07:19:54;44.00;;;31.80;;
14088;SDS011;7120;52.890;6.040;2024-03-07T07:22:20;40.10;;;30.67;;
14088;SDS011;7120;52.890;6.040;2024-03-07T07:24:46;41.17;;;30.87;;
14088;SDS011;7120;52.890;6.040;2024-03-07T07:27:11;39.40;;;31.07;;
14088;SDS011;7120;52.890;6.040;2024-03-07T07:29:37;38.90;;;30.23;;
14088;SDS011;7120;52.890;6.040;2024-03-07T07:32:02;38.57;;;29.13;;
14088;SDS011;7120;52.890;6.040;2024-03-07T07:34:28;38.53;;;29.63;;
14088;SDS011;7120;52.890;6.040;2024-03-07T07:36:53;36.47;;;29.23;;
14088;SDS011;7120;52.890;6.040;2024-03-07T07:39:18;37.43;;;28.63;;
14088;SDS011;7120;52.890;6.040;2024-03-07T07:41:44;37.27;;;29.57;;
14088;SDS011;7120;52.890;6.040;2024-03-07T07:44:09;36.70;;;28.37;;
14088;SDS011;7120;52.890;6.040;2024-03-07T07:46:34;36.33;;;30.03;;
14088;SDS011;7120;52.890;6.040;2024-03-07T07:49:00;34.33;;;27.53;;
14088;SDS011;7120;52.890;6.040;2024-03-07T07:51:27;36.50;;;29.30;;
14088;SDS011;7120;52.890;6.040;2024-03-07T07:53:52;34.87;;;27.77;;
14088;SDS011;7120;52.890;6.040;2024-03-07T07:56:19;35.77;;;29.50;;
14088;SDS011;7120;52.890;6.040;2024-03-07T07:58:45;36.07;;;28.63;;
14088;SDS011;7120;52.890;6.040;2024-03-07T08:01:11;38.37;;;29.53;;
14088;SDS011;7120;52.890;6.040;2024-03-07T08:03:36;35.37;;;29.63;;
14088;SDS011;7120;52.890;6.040;2024-03-07T08:06:03;40.27;;;31.37;;
14088;SDS011;7120;52.890;6.040;2024-03-07T08:08:28;34.77;;;29.17;;
14088;SDS011;7120;52.890;6.040;2024-03-07T08:10:54;37.27;;;29.73;;
14088;SDS011;7120;52.890;6.040;2024-03-07T08:13:19;33.57;;;28.80;;
14088;SDS011;7120;52.890;6.040;2024-03-07T08:15:44;33.93;;;28.73;;
14088;SDS011;7120;52.890;6.040;2024-03-07T08:18:10;33.30;;;27.07;;
14088;SDS011;7120;52.890;6.040;2024-03-07T08:20:35;31.20;;;27.83;;
14088;SDS011;7120;52.890;6.040;2024-03-07T08:23:01;32.53;;;26.43;;
14088;SDS011;7120;52.890;6.040;2024-03-07T08:25:27;34.10;;;27.33;;
14088;SDS011;7120;52.890;6.040;2024-03-07T08:27:54;32.90;;;27.47;;
14088;SDS011;7120;52.890;6.040;2024-03-07T08:30:21;29.97;;;26.60;;
14088;SDS011;7120;52.890;6.040;2024-03-07T08:32:57;29.27;;;25.93;;
14088;SDS011;7120;52.890;6.040;2024-03-07T08:35:23;32.70;;;27.57;;
14088;SDS011;7120;52.890;6.040;2024-03-07T08:37:50;31.30;;;27.80;;
14088;SDS011;7120;52.890;6.040;2024-03-07T08:40:18;28.83;;;25.40;;
14088;SDS011;7120;52.890;6.040;2024-03-07T08:42:48;28.50;;;25.40;;
14088;SDS011;7120;52.890;6.040;2024-03-07T08:45:16;25.97;;;23.17;;
14088;SDS011;7120;52.890;6.040;2024-03-07T08:47:44;25.30;;;22.67;;
14088;SDS011;7120;52.890;6.040;2024-03-07T08:50:11;22.73;;;20.33;;
14088;SDS011;7120;52.890;6.040;2024-03-07T08:52:38;22.23;;;19.67;;
14088;SDS011;7120;52.890;6.040;2024-03-07T08:55:05;21.87;;;19.63;;
14088;SDS011;7120;52.890;6.040;2024-03-07T08:57:34;21.40;;;19.30;;
14088;SDS011;7120;52.890;6.040;2024-03-07T08:59:59;23.37;;;20.73;;
14088;SDS011;7120;52.890;6.040;2024-03-07T09:02:26;22.87;;;20.43;;
14088;SDS011;7120;52.890;6.040;2024-03-07T09:04:51;23.13;;;20.63;;
14088;SDS011;7120;52.890;6.040;2024-03-07T09:07:17;24.87;;;22.37;;
14088;SDS011;7120;52.890;6.040;2024-03-07T09:09:42;26.77;;;23.97;;
14088;SDS011;7120;52.890;6.040;2024-03-07T09:12:10;27.40;;;24.23;;
14088;SDS011;7120;52.890;6.040;2024-03-07T09:14:36;27.53;;;24.63;;
14088;SDS011;7120;52.890;6.040;2024-03-07T09:17:03;27.60;;;24.80;;
14088;SDS011;7120;52.890;6.040;2024-03-07T09:19:29;28.30;;;24.37;;
14088;SDS011;7120;52.890;6.040;2024-03-07T09:21:56;29.10;;;25.13;;
14088;SDS011;7120;52.890;6.040;2024-03-07T09:24:21;28.87;;;25.13;;
14088;SDS011;7120;52.890;6.040;2024-03-07T09:26:49;31.83;;;26.90;;
14088;SDS011;7120;52.890;6.040;2024-03-07T09:29:18;33.53;;;26.63;;
14088;SDS011;7120;52.890;6.040;2024-03-07T09:31:44;28.53;;;25.50;;
14088;SDS011;7120;52.890;6.040;2024-03-07T09:34:11;29.13;;;26.03;;
14088;SDS011;7120;52.890;6.040;2024-03-07T09:36:37;30.93;;;27.13;;
14088;SDS011;7120;52.890;6.040;2024-03-07T09:39:03;30.57;;;26.73;;
14088;SDS011;7120;52.890;6.040;2024-03-07T09:41:29;30.57;;;26.10;;
14088;SDS011;7120;52.890;6.040;2024-03-07T09:43:55;29.90;;;25.50;;
14088;SDS011;7120;52.890;6.040;2024-03-07T09:46:21;32.57;;;26.17;;
14088;SDS011;7120;52.890;6.040;2024-03-07T09:48:48;30.70;;;25.53;;
14088;SDS011;7120;52.890;6.040;2024-03-07T09:51:16;31.30;;;25.90;;
14088;SDS011;7120;52.890;6.040;2024-03-07T09:53:44;33.53;;;27.70;;
14088;SDS011;7120;52.890;6.040;2024-03-07T09:56:12;31.10;;;26.63;;
14088;SDS011;7120;52.890;6.040;2024-03-07T09:58:41;32.10;;;25.67;;
14088;SDS011;7120;52.890;6.040;2024-03-07T10:01:10;30.20;;;24.67;;
14088;SDS011;7120;52.890;6.040;2024-03-07T10:03:36;28.70;;;23.73;;
14088;SDS011;7120;52.890;6.040;2024-03-07T10:06:05;28.50;;;23.93;;
14088;SDS011;7120;52.890;6.040;2024-03-07T10:08:31;29.43;;;24.27;;
14088;SDS011;7120;52.890;6.040;2024-03-07T10:10:57;28.73;;;24.43;;
14088;SDS011;7120;52.890;6.040;2024-03-07T10:13:22;29.53;;;24.27;;
14088;SDS011;7120;52.890;6.040;2024-03-07T10:15:47;30.37;;;24.67;;
14088;SDS011;7120;52.890;6.040;2024-03-07T10:18:13;32.80;;;26.93;;
14088;SDS011;7120;52.890;6.040;2024-03-07T10:20:39;31.83;;;24.93;;
14088;SDS011;7120;52.890;6.040;2024-03-07T10:23:07;30.43;;;25.00;;
14088;SDS011;7120;52.890;6.040;2024-03-07T10:25:33;29.87;;;24.07;;
14088;SDS011;7120;52.890;6.040;2024-03-07T10:27:59;29.67;;;23.87;;
14088;SDS011;7120;52.890;6.040;2024-03-07T10:30:25;29.43;;;23.53;;
14088;SDS011;7120;52.890;6.040;2024-03-07T10:32:56;34.83;;;24.83;;
14088;SDS011;7120;52.890;6.040;2024-03-07T10:35:25;29.60;;;23.27;;
14088;SDS011;7120;52.890;6.040;2024-03-07T10:37:54;30.13;;;22.77;;
14088;SDS011;7120;52.890;6.040;2024-03-07T10:40:21;29.97;;;22.83;;
14088;SDS011;7120;52.890;6.040;2024-03-07T10:42:47;33.63;;;25.00;;
14088;SDS011;7120;52.890;6.040;2024-03-07T10:45:17;33.73;;;25.23;;
14088;SDS011;7120;52.890;6.040;2024-03-07T10:47:46;31.57;;;25.50;;
14088;SDS011;7120;52.890;6.040;2024-03-07T10:50:20;29.70;;;24.23;;
14088;SDS011;7120;52.890;6.040;2024-03-07T10:52:59;31.03;;;25.53;;
14088;SDS011;7120;52.890;6.040;2024-03-07T10:58:02;27.53;;;22.20;;
14088;SDS011;7120;52.890;6.040;2024-03-07T11:00:37;30.60;;;22.50;;
14088;SDS011;7120;52.890;6.040;2024-03-07T11:03:10;25.50;;;20.57;;
14088;SDS011;7120;52.890;6.040;2024-03-07T11:05:36;27.67;;;21.63;;
14088;SDS011;7120;52.890;6.040;2024-03-07T11:08:03;28.87;;;22.17;;
14088;SDS011;7120;52.890;6.040;2024-03-07T11:10:36;24.33;;;20.50;;
14088;SDS011;7120;52.890;6.040;2024-03-07T11:13:02;24.90;;;20.10;;
14088;SDS011;7120;52.890;6.040;2024-03-07T11:15:29;24.43;;;20.50;;
14088;SDS011;7120;52.890;6.040;2024-03-07T11:17:56;26.87;;;21.73;;
14088;SDS011;7120;52.890;6.040;2024-03-07T11:20:25;24.73;;;20.90;;
14088;SDS011;7120;52.890;6.040;2024-03-07T11:22:51;25.43;;;22.13;;
14088;SDS011;7120;52.890;6.040;2024-03-07T11:25:21;23.27;;;19.27;;
14088;SDS011;7120;52.890;6.040;2024-03-07T11:27:55;24.33;;;20.90;;
14088;SDS011;7120;52.890;6.040;2024-03-07T11:30:21;25.23;;;19.90;;
14088;SDS011;7120;52.890;6.040;2024-03-07T11:32:47;21.00;;;18.70;;
14088;SDS011;7120;52.890;6.040;2024-03-07T11:35:18;20.67;;;18.07;;
14088;SDS011;7120;52.890;6.040;2024-03-07T11:38:06;22.20;;;18.47;;
14088;SDS011;7120;52.890;6.040;2024-03-07T11:43:04;22.20;;;18.50;;
14088;SDS011;7120;52.890;6.040;2024-03-07T11:45:29;19.87;;;17.13;;
14088;SDS011;7120;52.890;6.040;2024-03-07T11:48:03;19.93;;;17.83;;
14088;SDS011;7120;52.890;6.040;2024-03-07T11:50:34;20.50;;;17.73;;
14088;SDS011;7120;52.890;6.040;2024-03-07T11:53:01;21.40;;;18.53;;
14088;SDS011;7120;52.890;6.040;2024-03-07T11:55:31;20.23;;;17.30;;
14088;SDS011;7120;52.890;6.040;2024-03-07T11:58:19;21.30;;;18.53;;
14088;SDS011;7120;52.890;6.040;2024-03-07T12:00:48;22.43;;;19.27;;
14088;SDS011;7120;52.890;6.040;2024-03-07T12:03:17;21.57;;;18.47;;
14088;SDS011;7120;52.890;6.040;2024-03-07T12:05:46;21.13;;;18.63;;
14088;SDS011;7120;52.890;6.040;2024-03-07T12:08:12;20.40;;;18.30;;
14088;SDS011;7120;52.890;6.040;2024-03-07T12:10:38;20.00;;;17.47;;
14088;SDS011;7120;52.890;6.040;2024-03-07T12:13:07;19.17;;;17.07;;
14088;SDS011;7120;52.890;6.040;2024-03-07T12:15:33;21.30;;;18.07;;
14088;SDS011;7120;52.890;6.040;2024-03-07T12:18:00;19.53;;;17.03;;
14088;SDS011;7120;52.890;6.040;2024-03-07T12:20:27;20.27;;;18.07;;
14088;SDS011;7120;52.890;6.040;2024-03-07T12:22:59;22.70;;;18.70;;
14088;SDS011;7120;52.890;6.040;2024-03-07T12:25:34;21.37;;;18.40;;
14088;SDS011;7120;52.890;6.040;2024-03-07T12:28:08;22.43;;;18.13;;
14088;SDS011;7120;52.890;6.040;2024-03-07T12:33:11;23.10;;;19.67;;
14088;SDS011;7120;52.890;6.040;2024-03-07T12:35:39;21.80;;;18.87;;
14088;SDS011;7120;52.890;6.040;2024-03-07T12:38:07;21.70;;;18.73;;
14088;SDS011;7120;52.890;6.040;2024-03-07T12:40:35;20.63;;;17.73;;
14088;SDS011;7120;52.890;6.040;2024-03-07T12:43:02;22.57;;;19.63;;
14088;SDS011;7120;52.890;6.040;2024-03-07T12:45:37;21.70;;;18.87;;
14088;SDS011;7120;52.890;6.040;2024-03-07T12:48:03;22.80;;;19.77;;
14088;SDS011;7120;52.890;6.040;2024-03-07T12:50:29;22.97;;;18.67;;
14088;SDS011;7120;52.890;6.040;2024-03-07T12:52:54;22.70;;;18.50;;
14088;SDS011;7120;52.890;6.040;2024-03-07T12:55:20;22.00;;;18.60;;
14088;SDS011;7120;52.890;6.040;2024-03-07T12:57:48;23.67;;;19.40;;
14088;SDS011;7120;52.890;6.040;2024-03-07T13:00:15;23.27;;;19.53;;
14088;SDS011;7120;52.890;6.040;2024-03-07T13:02:47;21.30;;;18.10;;
14088;SDS011;7120;52.890;6.040;2024-03-07T13:05:14;25.27;;;19.50;;
14088;SDS011;7120;52.890;6.040;2024-03-07T13:07:46;24.90;;;19.10;;
14088;SDS011;7120;52.890;6.040;2024-03-07T13:10:13;22.93;;;19.47;;
14088;SDS011;7120;52.890;6.040;2024-03-07T13:12:52;23.73;;;19.93;;
14088;SDS011;7120;52.890;6.040;2024-03-07T13:15:18;23.50;;;18.93;;
14088;SDS011;7120;52.890;6.040;2024-03-07T13:17:46;22.97;;;18.43;;
14088;SDS011;7120;52.890;6.040;2024-03-07T13:20:14;24.07;;;18.20;;
14088;SDS011;7120;52.890;6.040;2024-03-07T13:22:43;20.80;;;18.60;;
14088;SDS011;7120;52.890;6.040;2024-03-07T13:25:16;19.90;;;17.77;;
14088;SDS011;7120;52.890;6.040;2024-03-07T13:27:50;23.40;;;18.70;;
14088;SDS011;7120;52.890;6.040;2024-03-07T13:30:25;21.30;;;17.23;;
14088;SDS011;7120;52.890;6.040;2024-03-07T13:32:55;25.53;;;17.20;;
14088;SDS011;7120;52.890;6.040;2024-03-07T13:35:21;22.23;;;18.87;;
14088;SDS011;7120;52.890;6.040;2024-03-07T13:37:48;23.90;;;19.53;;
14088;SDS011;7120;52.890;6.040;2024-03-07T13:40:15;19.63;;;16.80;;
14088;SDS011;7120;52.890;6.040;2024-03-07T13:45:18;21.83;;;17.37;;
14088;SDS011;7120;52.890;6.040;2024-03-07T13:47:46;20.53;;;17.00;;
14088;SDS011;7120;52.890;6.040;2024-03-07T13:50:15;20.13;;;16.63;;
14088;SDS011;7120;52.890;6.040;2024-03-07T13:52:44;22.47;;;16.40;;
14088;SDS011;7120;52.890;6.040;2024-03-07T13:55:29;24.30;;;16.90;;
14088;SDS011;7120;52.890;6.040;2024-03-07T13:57:56;22.17;;;17.20;;
14088;SDS011;7120;52.890;6.040;2024-03-07T14:06:11;18.53;;;14.70;;
14088;SDS011;7120;52.890;6.040;2024-03-07T14:08:55;21.47;;;16.20;;
14088;SDS011;7120;52.890;6.040;2024-03-07T14:23:19;22.20;;;17.10;;
14088;SDS011;7120;52.890;6.040;2024-03-07T14:29:16;23.77;;;18.43;;
14088;SDS011;7120;52.890;6.040;2024-03-07T14:31:51;22.73;;;17.80;;
14088;SDS011;7120;52.890;6.040;2024-03-07T14:34:23;24.30;;;19.47;;
14088;SDS011;7120;52.890;6.040;2024-03-07T14:36:56;23.67;;;18.03;;
14088;SDS011;7120;52.890;6.040;2024-03-07T14:39:29;25.53;;;19.17;;
14088;SDS011;7120;52.890;6.040;2024-03-07T14:42:07;23.73;;;18.30;;
14088;SDS011;7120;52.890;6.040;2024-03-07T14:44:36;27.07;;;19.67;;
14088;SDS011;7120;52.890;6.040;2024-03-07T14:47:05;23.60;;;17.57;;
14088;SDS011;7120;52.890;6.040;2024-03-07T14:49:36;23.93;;;17.97;;
14088;SDS011;7120;52.890;6.040;2024-03-07T14:52:03;25.03;;;18.60;;
14088;SDS011;7120;52.890;6.040;2024-03-07T14:54:35;25.30;;;19.53;;
14088;SDS011;7120;52.890;6.040;2024-03-07T14:57:00;24.50;;;19.33;;
14088;SDS011;7120;52.890;6.040;2024-03-07T14:59:25;24.53;;;17.87;;
14088;SDS011;7120;52.890;6.040;2024-03-07T15:01:51;24.37;;;18.53;;
14088;SDS011;7120;52.890;6.040;2024-03-07T15:04:17;25.90;;;19.00;;
14088;SDS011;7120;52.890;6.040;2024-03-07T15:06:43;26.70;;;18.87;;